Time;durP1;ratioP1;P1;durP2;ratioP2;P2;SDS_P1;SDS_P2;PMS_P1;PMS_P2;Temp;Humidity;BMP_temperature;BMP_pressure;BME280_temperature;BME280_humidity;BME280_pressure;Samples;Min_cycle;Max_cycle;Signal;HPM_P1;HPM_P2
2022/07/08 00:01:03;;;;;;;0.20;0.20;;;;;;;18.02;50.24;102382.56;5174384;28;20045;-83
2022/07/08 00:03:38;;;;;;;;;;;;;;;18.00;50.29;102390.59;5189090;28;20532;-82
2022/07/08 00:06:08;;;;;;;0.30;0.30;;;;;;;17.99;50.39;102386.19;5183206;28;19927;-82
2022/07/08 00:08:59;;;;;;;0.35;0.35;;;;;;;17.99;50.67;102386.19;5223111;28;20048;-83
2022/07/08 00:11:32;;;;;;;0.80;0.55;;;;;;;17.99;51.42;102387.94;5206171;28;20044;-80
2022/07/08 00:14:03;;;;;;;1.00;1.00;;;;;;;17.89;50.60;102390.00;5203692;28;20036;-81
2022/07/08 00:16:40;;;;;;;5.07;2.38;;;;;;;17.88;50.26;102390.91;5204570;28;20521;-81
2022/07/08 00:19:14;;;;;;;1.55;0.93;;;;;;;17.86;51.82;102393.63;5207458;28;20029;-83
2022/07/08 00:21:46;;;;;;;0.20;0.20;;;;;;;17.85;50.59;102393.69;5208875;28;20257;-81
2022/07/08 00:24:19;;;;;;;0.55;0.55;;;;;;;17.81;50.88;102387.56;5205823;28;20140;-81
2022/07/08 00:26:50;;;;;;;1.15;0.95;;;;;;;17.86;50.86;102375.06;5203830;28;20045;-83
2022/07/08 00:29:20;;;;;;;1.42;1.33;;;;;;;17.81;52.26;102389.38;5223982;28;20064;-81
2022/07/08 00:31:51;;;;;;;0.52;0.50;;;;;;;17.80;50.81;102388.53;5202879;28;20037;-81
2022/07/08 00:34:29;;;;;;;0.40;0.40;;;;;;;17.80;51.11;102380.56;5192601;28;20036;-81
2022/07/08 00:36:59;;;;;;;0.47;0.47;;;;;;;17.82;51.42;102381.34;5189183;28;20029;-81
2022/07/08 00:39:30;;;;;;;1.27;0.57;;;;;;;17.88;50.90;102382.97;5191022;28;20048;-82
2022/07/08 00:42:01;;;;;;;0.60;0.60;;;;;;;17.76;51.07;102384.22;5200511;28;20033;-84
2022/07/08 00:44:37;;;;;;;0.60;0.60;;;;;;;17.71;52.24;102388.81;5211185;28;20033;-85
2022/07/08 00:47:11;;;;;;;1.20;0.70;;;;;;;17.66;51.78;102380.09;5205169;28;20468;-81
2022/07/08 00:49:44;;;;;;;0.20;0.20;;;;;;;17.68;52.38;102389.78;5190951;28;20097;-85
2022/07/08 00:52:15;;;;;;;0.40;0.40;;;;;;;17.65;52.85;102386.31;5210000;28;20029;-83
2022/07/08 00:54:46;;;;;;;15.00;1.67;;;;;;;17.65;52.48;102384.53;5215618;28;20056;-81
2022/07/08 00:57:17;;;;;;;0.30;0.30;;;;;;;17.71;51.88;102388.81;5220329;28;20033;-81
2022/07/08 00:59:50;;;;;;;0.47;0.47;;;;;;;17.66;51.79;102396.00;5173890;28;20048;-82
2022/07/08 01:02:20;;;;;;;;;;;;;;;17.60;52.43;102400.59;5192486;28;20041;-83
2022/07/08 01:04:53;;;;;;;0.32;0.32;;;;;;;17.54;52.24;102403.44;5190786;28;19921;-81
2022/07/08 01:07:24;;;;;;;0.85;0.43;;;;;;;17.57;51.25;102398.03;5206339;28;20033;-84
2022/07/08 01:09:55;;;;;;;0.60;0.60;;;;;;;17.54;52.49;102400.78;5223405;28;20106;-86
2022/07/08 01:12:27;;;;;;;0.20;0.20;;;;;;;17.56;51.13;102406.91;5215566;28;20140;-85
2022/07/08 01:14:58;;;;;;;4.65;0.75;;;;;;;17.55;51.76;102407.84;5199956;28;20090;-82
2022/07/08 01:17:40;;;;;;;0.30;0.30;;;;;;;17.60;52.01;102400.59;5213981;28;20029;-82
2022/07/08 01:20:12;;;;;;;0.28;0.28;;;;;;;17.53;51.63;102401.72;5203603;28;20119;-85
2022/07/08 01:22:43;;;;;;;0.65;0.65;;;;;;;17.51;52.12;102403.53;5204940;28;20107;-84
2022/07/08 01:25:17;;;;;;;0.30;0.30;;;;;;;17.52;51.68;102401.75;5186196;28;20040;-82
2022/07/08 01:27:48;;;;;;;0.50;0.50;;;;;;;17.45;52.26;102404.56;5201578;28;20503;-83
2022/07/08 01:30:19;;;;;;;0.55;0.55;;;;;;;17.44;52.88;102396.66;5189211;28;20110;-82
2022/07/08 01:32:49;;;;;;;0.50;0.50;;;;;;;17.47;51.70;102404.56;5201649;28;20090;-80
2022/07/08 01:35:20;;;;;;;2.40;0.40;;;;;;;17.44;51.85;102412.59;5184721;28;20049;-83
2022/07/08 01:37:50;;;;;;;0.65;0.60;;;;;;;17.40;52.95;102411.81;5190311;28;20036;-83
2022/07/08 01:40:21;;;;;;;0.20;0.20;;;;;;;17.45;51.77;102403.72;5205489;28;20028;-82
2022/07/08 01:42:52;;;;;;;0.35;0.35;;;;;;;17.43;51.57;102394.94;5203348;28;20036;-83
2022/07/08 01:45:22;;;;;;;0.47;0.43;;;;;;;17.43;52.19;102400.22;5222996;28;20037;-83
2022/07/08 01:47:53;;;;;;;10.98;1.23;;;;;;;17.43;53.01;102401.13;5222375;28;20033;-83
2022/07/08 01:50:23;;;;;;;0.40;0.40;;;;;;;17.40;51.61;102400.31;5203679;28;20039;-82
2022/07/08 01:52:55;;;;;;;0.28;0.28;;;;;;;17.39;52.52;102402.09;5200686;28;20530;-83
2022/07/08 01:55:28;;;;;;;0.32;0.32;;;;;;;17.49;52.04;102396.53;5187454;28;20692;-83
2022/07/08 01:57:59;;;;;;;2.40;1.33;;;;;;;17.42;53.29;102399.38;5191501;28;20021;-83
2022/07/08 02:00:30;;;;;;;0.20;0.20;;;;;;;17.41;52.01;102402.94;5202389;28;20114;-81
2022/07/08 02:03:01;;;;;;;0.20;0.20;;;;;;;17.36;52.15;102398.69;5187591;28;20107;-82
2022/07/08 02:05:33;;;;;;;1.10;1.05;;;;;;;17.38;51.98;102403.03;5203201;28;20033;-81
2022/07/08 02:08:06;;;;;;;0.20;0.20;;;;;;;17.36;52.15;102406.63;5200821;28;20449;-85
2022/07/08 02:13:27;;;;;;;0.50;0.50;;;;;;;17.31;52.16;102407.63;5198895;28;20651;-85
2022/07/08 02:15:57;;;;;;;0.20;0.20;;;;;;;17.31;52.07;102407.63;5203551;28;20088;-83
2022/07/08 02:18:30;;;;;;;0.43;0.43;;;;;;;17.35;52.70;102404.88;5172840;28;20028;-82
2022/07/08 02:21:01;;;;;;;0.47;0.40;;;;;;;17.32;52.88;102403.19;5203041;28;20096;-83
2022/07/08 02:23:32;;;;;;;11.43;1.20;;;;;;;17.30;52.72;102395.31;5205560;28;20037;-81
2022/07/08 02:26:05;;;;;;;0.73;0.73;;;;;;;17.32;52.05;102395.25;5204708;28;20120;-83
2022/07/08 02:28:36;;;;;;;;;;;;;;;17.35;52.37;102394.28;5205630;28;20497;-81
2022/07/08 02:31:08;;;;;;;0.47;0.47;;;;;;;17.30;52.89;102395.31;5210245;28;19917;-83
2022/07/08 02:33:38;;;;;;;0.63;0.63;;;;;;;17.26;53.11;102395.44;5185370;28;20032;-81
2022/07/08 02:36:14;;;;;;;0.75;0.75;;;;;;;17.21;53.50;102397.31;5187229;28;20045;-82
2022/07/08 02:38:45;;;;;;;0.30;0.30;;;;;;;17.18;52.55;102390.31;5218860;28;20029;-83
2022/07/08 02:41:15;;;;;;;0.30;0.30;;;;;;;17.24;52.48;102402.56;5208386;28;20080;-82
2022/07/08 02:43:47;;;;;;;0.40;0.40;;;;;;;17.18;52.83;102406.25;5199783;28;20025;-82
2022/07/08 02:46:20;;;;;;;0.20;0.20;;;;;;;17.17;52.55;102398.34;5225299;28;20368;-86
2022/07/08 02:48:50;;;;;;;0.98;0.98;;;;;;;17.19;52.80;102401.81;5194447;28;20049;-85
2022/07/08 02:51:21;;;;;;;0.30;0.30;;;;;;;17.15;52.37;102401.00;5228778;28;20036;-80
2022/07/08 02:53:51;;;;;;;0.25;0.25;;;;;;;17.17;53.29;102399.19;5177274;28;20137;-82
2022/07/08 02:56:22;;;;;;;2.40;0.90;;;;;;;17.13;53.74;102402.88;5204041;28;20045;-85
2022/07/08 02:58:53;;;;;;;1.45;1.30;;;;;;;17.14;53.45;102409.91;5204905;28;20113;-84
2022/07/08 03:01:23;;;;;;;0.50;0.50;;;;;;;17.10;53.03;102408.25;5225241;28;20107;-84
2022/07/08 03:03:54;;;;;;;2.13;0.85;;;;;;;17.07;52.78;102403.00;5232193;28;20029;-80
2022/07/08 03:06:27;;;;;;;0.45;0.45;;;;;;;17.12;53.21;102409.06;5212893;28;20049;-82
2022/07/08 03:08:58;;;;;;;2.70;0.80;;;;;;;17.03;53.57;102404.03;5215074;28;20213;-82
2022/07/08 03:11:28;;;;;;;0.40;0.40;;;;;;;16.95;53.71;102415.72;5186869;28;20097;-84
2022/07/08 03:13:59;;;;;;;0.47;0.47;;;;;;;16.97;53.75;102416.53;5201884;28;20051;-81
2022/07/08 03:16:30;;;;;;;0.38;0.38;;;;;;;16.95;53.38;102405.09;5186867;28;20056;-81
2022/07/08 03:19:00;;;;;;;0.30;0.30;;;;;;;16.95;53.34;102413.06;5204274;28;20075;-82
2022/07/08 03:21:31;;;;;;;0.20;0.20;;;;;;;16.98;53.32;102426.22;5191079;28;20132;-85
2022/07/08 03:24:01;;;;;;;0.30;0.30;;;;;;;16.96;53.89;102420.09;5220991;28;20028;-83
2022/07/08 03:26:32;;;;;;;0.55;0.52;;;;;;;16.92;54.05;102413.09;5186503;28;20045;-82
2022/07/08 03:29:09;;;;;;;0.30;0.30;;;;;;;16.87;53.96;102417.66;5188578;28;20017;-81
2022/07/08 03:31:43;;;;;;;0.68;0.68;;;;;;;16.81;53.53;102408.09;5186624;28;20056;-85
2022/07/08 03:34:14;;;;;;;0.30;0.30;;;;;;;16.82;54.02;102408.94;5189673;28;20112;-81
2022/07/08 03:36:45;;;;;;;1.70;1.13;;;;;;;16.83;53.59;102416.88;5203607;28;20417;-82
2022/07/08 03:39:18;;;;;;;0.40;0.40;;;;;;;16.86;53.73;102409.75;5214115;28;20025;-82
2022/07/08 03:41:52;;;;;;;0.20;0.20;;;;;;;16.82;53.50;102414.25;5198673;28;20133;-80
2022/07/08 03:44:25;;;;;;;1.48;1.38;;;;;;;16.78;54.14;102413.44;5206094;28;20025;-80
2022/07/08 03:46:56;;;;;;;;;;;;;;;16.81;53.67;102417.84;5221169;28;20048;-83
2022/07/08 03:49:26;;;;;;;0.30;0.30;;;;;;;16.76;54.40;102419.72;5217321;28;19920;-80
2022/07/08 03:51:57;;;;;;;0.20;0.20;;;;;;;16.77;53.66;102421.47;5221317;28;20049;-82
2022/07/08 03:54:28;;;;;;;2.65;1.00;;;;;;;16.80;53.59;102421.38;5213988;28;20175;-83
2022/07/08 03:56:59;;;;;;;0.50;0.50;;;;;;;16.83;53.93;102422.19;5221175;28;20056;-81
2022/07/08 03:59:32;;;;;;;0.30;0.30;;;;;;;16.78;54.19;102423.19;5189868;28;20279;-80
2022/07/08 04:02:03;;;;;;;0.65;0.65;;;;;;;16.74;54.90;102421.53;5218046;28;20048;-80
2022/07/08 04:04:33;;;;;;;0.20;0.20;;;;;;;16.72;54.48;102432.19;5207789;28;20063;-82
2022/07/08 04:07:04;;;;;;;0.20;0.20;;;;;;;16.71;54.43;102425.13;5222134;28;20154;-82
2022/07/08 04:09:34;;;;;;;0.57;0.57;;;;;;;16.70;54.62;102435.78;5200292;28;20040;-81
2022/07/08 04:12:10;;;;;;;1.65;1.15;;;;;;;16.65;54.40;102439.41;5207471;28;20048;-82
2022/07/08 04:14:40;;;;;;;1.13;1.00;;;;;;;16.58;54.90;102435.16;5212375;28;20044;-83
2022/07/08 04:17:11;;;;;;;0.20;0.20;;;;;;;16.58;54.62;102443.13;5196166;28;20562;-80
2022/07/08 04:19:41;;;;;;;0.20;0.20;;;;;;;16.63;54.38;102446.53;5205178;28;20040;-81
2022/07/08 04:22:12;;;;;;;0.60;0.57;;;;;;;16.61;54.53;102442.19;5169969;28;20114;-79
2022/07/08 04:24:42;;;;;;;0.68;0.68;;;;;;;16.64;54.42;102444.75;5197233;28;20021;-83
2022/07/08 04:27:13;;;;;;;0.60;0.60;;;;;;;16.61;54.28;102443.06;5210510;28;20035;-84
2022/07/08 04:29:43;;;;;;;0.20;0.20;;;;;;;16.59;54.16;102441.34;5207102;28;20119;-79
2022/07/08 04:32:14;;;;;;;0.45;0.45;;;;;;;16.60;54.30;102443.97;5200493;28;20045;-79
2022/07/08 04:34:45;;;;;;;0.40;0.40;;;;;;;16.59;54.04;102439.56;5219023;28;20040;-81
2022/07/08 04:37:16;;;;;;;0.25;0.25;;;;;;;16.57;53.73;102441.38;5200383;28;20081;-82
2022/07/08 04:39:46;;;;;;;0.20;0.20;;;;;;;16.57;54.49;102444.03;5202133;28;20446;-79
2022/07/08 04:42:17;;;;;;;0.65;0.65;;;;;;;16.54;54.12;102444.13;5180193;28;20040;-79
2022/07/08 04:44:48;;;;;;;0.30;0.30;;;;;;;16.57;54.07;102451.13;5205794;28;20512;-80
2022/07/08 04:47:19;;;;;;;0.30;0.30;;;;;;;16.56;53.93;102452.91;5183193;28;20041;-81
2022/07/08 04:49:49;;;;;;;0.40;0.40;;;;;;;16.56;53.98;102452.91;5188543;28;20342;-79
2022/07/08 04:52:20;;;;;;;0.75;0.75;;;;;;;16.60;53.96;102451.06;5196484;28;20037;-79
2022/07/08 04:54:50;;;;;;;1.67;0.63;;;;;;;16.53;55.02;102456.47;5182093;28;20446;-79
2022/07/08 04:57:24;;;;;;;0.32;0.32;;;;;;;16.50;54.27;102451.28;5210028;28;20063;-81
2022/07/08 04:59:54;;;;;;;0.35;0.30;;;;;;;16.50;54.30;102453.94;5213773;28;20037;-80
2022/07/08 05:02:28;;;;;;;0.75;0.70;;;;;;;16.54;53.78;102457.38;5189960;28;20114;-84
2022/07/08 05:04:59;;;;;;;0.60;0.60;;;;;;;16.52;54.93;102464.47;5203762;28;20060;-81
2022/07/08 05:07:29;;;;;;;4.65;1.00;;;;;;;16.52;54.26;102465.38;5200233;28;20071;-80
2022/07/08 05:10:08;;;;;;;0.30;0.30;;;;;;;16.52;55.86;102461.81;5185402;28;20587;-82
2022/07/08 05:12:39;;;;;;;0.60;0.60;;;;;;;16.43;55.89;102464.69;5199803;28;20099;-81
2022/07/08 05:15:10;;;;;;;0.30;0.30;;;;;;;16.42;55.26;102461.19;5178351;28;20442;-80
2022/07/08 05:17:41;;;;;;;0.20;0.20;;;;;;;16.45;54.94;102463.75;5182066;28;20105;-80
2022/07/08 05:20:11;;;;;;;0.85;0.85;;;;;;;16.39;56.11;102471.84;5179912;28;20549;-80
2022/07/08 05:22:42;;;;;;;2.03;1.15;;;;;;;16.48;54.99;102478.72;5199116;28;20041;-83
2022/07/08 05:25:13;;;;;;;0.28;0.28;;;;;;;16.43;55.54;102483.25;5204800;28;20033;-81
2022/07/08 05:27:43;;;;;;;0.30;0.30;;;;;;;16.47;55.33;102483.13;5176563;28;20067;-80
2022/07/08 05:30:14;;;;;;;0.30;0.30;;;;;;;16.45;56.03;102486.72;5185160;28;20120;-82
2022/07/08 05:32:48;;;;;;;0.60;0.60;;;;;;;16.45;56.59;102486.72;5209273;28;20046;-79
2022/07/08 05:35:18;;;;;;;0.55;0.55;;;;;;;16.43;56.64;102485.88;5199156;28;20269;-82
2022/07/08 05:37:49;;;;;;;0.82;0.82;;;;;;;16.41;56.30;102482.41;5200086;28;20533;-82
2022/07/08 05:40:19;;;;;;;0.45;0.45;;;;;;;16.40;55.20;102483.34;5188833;28;20379;-79
2022/07/08 05:42:50;;;;;;;0.20;0.20;;;;;;;16.40;55.01;102481.53;5166242;28;20713;-80
2022/07/08 05:45:23;;;;;;;0.30;0.30;;;;;;;16.48;55.31;102484.03;5185106;28;20780;-80
2022/07/08 05:47:54;;;;;;;0.40;0.40;;;;;;;16.50;55.15;102492.78;5200175;28;20140;-80
2022/07/08 05:50:25;;;;;;;0.30;0.30;;;;;;;16.47;54.87;102498.16;5204928;28;20116;-80
2022/07/08 05:52:55;;;;;;;0.20;0.20;;;;;;;16.46;55.93;102499.94;5193573;28;20086;-80
2022/07/08 05:55:26;;;;;;;0.45;0.45;;;;;;;16.48;55.88;102500.78;5182366;28;20096;-82
2022/07/08 05:57:58;;;;;;;0.43;0.43;;;;;;;16.48;55.68;102513.16;5182384;28;20083;-79
2022/07/08 06:00:29;;;;;;;0.28;0.28;;;;;;;16.51;55.88;102506.00;5206590;28;20112;-79
2022/07/08 06:03:06;;;;;;;0.93;0.93;;;;;;;16.49;56.20;102506.94;5223237;28;20026;-81
2022/07/08 06:05:37;;;;;;;0.82;0.77;;;;;;;16.46;55.69;102509.66;5213262;28;20128;-79
2022/07/08 06:08:08;;;;;;;0.22;0.22;;;;;;;16.47;55.36;102508.78;5183161;28;20017;-81
2022/07/08 06:10:38;;;;;;;2.78;1.73;;;;;;;16.45;56.01;102510.56;5197261;28;20043;-79
2022/07/08 06:13:09;;;;;;;0.57;0.57;;;;;;;16.48;55.78;102514.03;5184422;28;20470;-80
2022/07/08 06:15:39;;;;;;;0.82;0.82;;;;;;;16.52;55.39;102518.34;5195662;28;20142;-80
2022/07/08 06:18:13;;;;;;;0.47;0.47;;;;;;;16.51;55.53;102521.91;5171794;28;20037;-80
2022/07/08 06:20:44;;;;;;;0.40;0.40;;;;;;;16.56;55.96;102513.84;5215360;28;20040;-81
2022/07/08 06:23:14;;;;;;;0.50;0.50;;;;;;;16.58;55.36;102512.00;5196930;28;20117;-81
2022/07/08 06:25:45;;;;;;;0.52;0.45;;;;;;;16.63;55.11;102509.25;5168180;28;20708;-80
2022/07/08 06:28:15;;;;;;;0.47;0.47;;;;;;;16.61;54.89;102511.94;5177691;28;20439;-79
2022/07/08 06:30:46;;;;;;;4.28;0.90;;;;;;;16.60;55.27;102518.16;5180807;28;20035;-80
2022/07/08 06:33:16;;;;;;;7.03;1.63;;;;;;;16.62;55.13;102521.66;5196979;28;20029;-81
2022/07/08 06:35:47;;;;;;;0.38;0.38;;;;;;;16.70;54.67;102524.09;5196483;28;20098;-79
2022/07/08 06:38:20;;;;;;;0.20;0.20;;;;;;;16.67;54.69;102527.69;5217073;28;20032;-80
2022/07/08 06:40:51;;;;;;;;;;;;;;;16.72;54.74;102535.53;5195265;28;20456;-79
2022/07/08 06:43:22;;;;;;;0.20;0.20;;;;;;;16.77;55.01;102528.38;5183965;28;19924;-79
2022/07/08 06:45:53;;;;;;;0.45;0.45;;;;;;;16.77;54.63;102531.03;5214446;28;20104;-82
2022/07/08 06:48:25;;;;;;;0.20;0.20;;;;;;;16.70;55.35;102532.06;5217192;28;20025;-79
2022/07/08 06:50:55;;;;;;;0.63;0.63;;;;;;;16.84;54.47;102534.38;5195037;28;20044;-81
2022/07/08 06:53:26;;;;;;;0.20;0.20;;;;;;;16.89;54.68;102536.91;5207290;28;20024;-79
2022/07/08 06:55:57;;;;;;;0.38;0.38;;;;;;;16.88;54.61;102540.47;5221217;28;20040;-79
2022/07/08 06:58:27;;;;;;;1.33;1.15;;;;;;;16.94;54.43;102541.22;5188271;28;20033;-80
2022/07/08 07:00:58;;;;;;;0.20;0.20;;;;;;;17.03;53.85;102540.13;5197384;28;20040;-80
2022/07/08 07:03:29;;;;;;;0.50;0.50;;;;;;;17.02;53.87;102548.13;5182524;28;20108;-81
2022/07/08 07:05:59;;;;;;;0.30;0.30;;;;;;;17.09;53.15;102539.97;5209789;28;20104;-79
2022/07/08 07:08:29;;;;;;;0.28;0.28;;;;;;;17.07;53.59;102540.91;5201968;28;20029;-79
2022/07/08 07:11:00;;;;;;;0.30;0.30;;;;;;;17.06;53.80;102547.16;5167935;28;20072;-81
2022/07/08 07:13:31;;;;;;;0.57;0.57;;;;;;;17.18;53.55;102540.66;5181731;28;20095;-79
2022/07/08 07:16:01;;;;;;;0.52;0.47;;;;;;;17.22;53.62;102539.66;5179427;28;20049;-80
2022/07/08 07:18:32;;;;;;;0.45;0.45;;;;;;;17.21;53.71;102543.22;5185988;28;20031;-79
2022/07/08 07:21:09;;;;;;;0.20;0.20;;;;;;;17.31;53.33;102542.91;5204090;28;20677;-83
2022/07/08 07:23:40;;;;;;;0.20;0.20;;;;;;;17.34;53.71;102538.44;5200294;28;20401;-81
2022/07/08 07:26:10;;;;;;;0.35;0.35;;;;;;;17.43;53.54;102541.75;5197906;28;20041;-80
2022/07/08 07:28:41;;;;;;;0.20;0.20;;;;;;;17.51;53.11;102535.34;5196096;28;20083;-79
2022/07/08 07:31:11;;;;;;;0.20;0.20;;;;;;;17.45;53.41;102547.88;5207641;28;20613;-81
2022/07/08 07:33:42;;;;;;;1.20;0.55;;;;;;;17.55;52.42;102548.50;5199662;28;20095;-79
2022/07/08 07:36:13;;;;;;;0.20;0.20;;;;;;;17.49;52.37;102559.25;5192153;28;20598;-79
2022/07/08 07:38:43;;;;;;;1.17;1.17;;;;;;;17.54;52.42;102551.19;5196601;28;20025;-79
2022/07/08 07:41:14;;;;;;;0.20;0.20;;;;;;;17.50;52.60;102550.41;5219588;28;20045;-80
2022/07/08 07:43:45;;;;;;;0.20;0.20;;;;;;;17.56;52.05;102554.66;5187559;28;20581;-80
2022/07/08 07:46:15;;;;;;;0.40;0.40;;;;;;;17.49;52.35;102558.41;5197869;28;20041;-82
2022/07/08 07:48:46;;;;;;;0.30;0.30;;;;;;;17.51;52.31;102567.22;5209144;28;20032;-84
2022/07/08 07:51:19;;;;;;;0.30;0.30;;;;;;;17.55;52.10;102567.09;5219411;28;20091;-79
2022/07/08 07:53:50;;;;;;;0.25;0.25;;;;;;;17.52;52.47;102556.53;5221967;28;20036;-80
2022/07/08 07:56:21;;;;;;;0.22;0.22;;;;;;;17.55;52.52;102559.13;5219069;28;20033;-79
2022/07/08 07:58:52;;;;;;;0.38;0.38;;;;;;;17.58;52.12;102548.41;5186104;28;20520;-79
2022/07/08 08:01:22;;;;;;;0.30;0.30;;;;;;;17.55;52.24;102545.84;5218732;28;20046;-83
2022/07/08 08:03:55;;;;;;;0.98;0.93;;;;;;;17.54;52.50;102559.13;5202331;28;20037;-80
2022/07/08 08:06:28;;;;;;;0.38;0.38;;;;;;;17.57;52.57;102553.75;5184050;28;20098;-80
2022/07/08 08:08:58;;;;;;;1.45;1.35;;;;;;;17.61;52.36;102548.31;5200175;28;20493;-79
2022/07/08 08:11:29;;;;;;;0.40;0.40;;;;;;;17.64;52.87;102549.16;5207555;28;20072;-79
2022/07/08 08:13:59;;;;;;;0.20;0.20;;;;;;;17.71;52.38;102558.69;5224684;28;20036;-80
2022/07/08 08:16:30;;;;;;;0.22;0.22;;;;;;;17.73;52.82;102556.84;5204625;28;20056;-80
2022/07/08 08:19:00;;;;;;;14.90;3.08;;;;;;;17.71;53.08;102564.84;5218322;28;20592;-79
2022/07/08 08:21:31;;;;;;;0.40;0.40;;;;;;;17.83;52.54;102565.44;5200240;28;20261;-80
2022/07/08 08:24:03;;;;;;;0.60;0.60;;;;;;;17.87;51.90;102565.31;5226717;28;20026;-80
2022/07/08 08:26:33;;;;;;;0.95;0.95;;;;;;;17.83;51.79;102552.16;5205523;28;20037;-79
2022/07/08 08:29:08;;;;;;;0.52;0.45;;;;;;;17.89;51.81;102567.91;5204894;28;20040;-79
2022/07/08 08:31:44;;;;;;;0.22;0.22;;;;;;;18.02;51.43;102563.16;5185925;28;20064;-79
2022/07/08 08:34:15;;;;;;;2.65;0.55;;;;;;;18.00;51.52;102563.22;5187768;28;20017;-79
2022/07/08 08:36:46;;;;;;;0.38;0.38;;;;;;;17.99;51.71;102560.56;5208185;28;20033;-80
2022/07/08 08:39:16;;;;;;;0.30;0.30;;;;;;;17.98;51.64;102554.41;5188361;28;20158;-80
2022/07/08 08:41:47;;;;;;;0.73;0.73;;;;;;;18.05;51.58;102552.44;5197811;28;20123;-81
2022/07/08 08:44:18;;;;;;;0.43;0.43;;;;;;;17.96;52.01;102536.78;5182104;28;20186;-79
2022/07/08 08:46:52;;;;;;;0.25;0.25;;;;;;;17.98;51.62;102540.25;5176174;28;20115;-79
2022/07/08 08:49:22;;;;;;;0.30;0.30;;;;;;;17.97;51.61;102534.06;5217238;28;20029;-80
2022/07/08 08:52:01;;;;;;;1.15;1.05;;;;;;;18.01;51.49;102540.16;5194408;28;20115;-79
2022/07/08 08:54:34;;;;;;;0.20;0.20;;;;;;;18.09;51.03;102533.72;5221659;28;20033;-79
2022/07/08 08:57:07;;;;;;;0.20;0.20;;;;;;;18.08;51.19;102539.06;5208636;28;20033;-80
2022/07/08 08:59:38;;;;;;;0.30;0.30;;;;;;;18.11;51.20;102544.28;5208773;28;20041;-80
2022/07/08 09:02:11;;;;;;;0.75;0.52;;;;;;;18.14;51.01;102533.56;5187435;28;20044;-78
2022/07/08 09:04:42;;;;;;;0.30;0.30;;;;;;;18.14;51.15;102533.56;5186360;28;20043;-78
2022/07/08 09:07:15;;;;;;;0.25;0.25;;;;;;;18.17;51.32;102543.25;5181332;28;20037;-78
2022/07/08 09:09:45;;;;;;;0.23;0.23;;;;;;;18.17;51.07;102546.75;5217414;28;20445;-78
2022/07/08 09:12:17;;;;;;;0.35;0.35;;;;;;;18.15;51.63;102543.28;5196921;28;20045;-78
2022/07/08 09:14:51;;;;;;;0.25;0.25;;;;;;;18.22;51.07;102538.66;5198449;28;20705;-78
2022/07/08 09:17:21;;;;;;;0.30;0.30;;;;;;;18.22;51.20;102528.03;5213968;28;20041;-79
2022/07/08 09:19:52;;;;;;;0.55;0.55;;;;;;;18.25;51.16;102534.13;5202647;28;20493;-79
2022/07/08 09:22:25;;;;;;;2.55;1.95;;;;;;;18.32;51.01;102545.44;5215420;28;20387;-80
2022/07/08 09:24:56;;;;;;;0.20;0.20;;;;;;;18.40;50.65;102542.50;5204509;28;20033;-79
2022/07/08 09:27:28;;;;;;;2.58;0.57;;;;;;;18.44;50.39;102549.50;5200068;28;20040;-79
2022/07/08 09:30:05;;;;;;;0.30;0.30;;;;;;;18.43;50.57;102552.22;5203877;28;20523;-79
2022/07/08 09:32:38;;;;;;;0.20;0.20;;;;;;;18.37;50.68;102548.81;5200456;28;20075;-79
2022/07/08 09:35:12;;;;;;;0.20;0.20;;;;;;;18.48;50.54;102539.63;5192688;28;20045;-79
2022/07/08 09:37:42;;;;;;;0.32;0.32;;;;;;;18.47;50.35;102546.72;5203371;28;20051;-79
2022/07/08 09:40:18;;;;;;;2.08;1.90;;;;;;;18.56;49.91;102548.22;5201238;28;20084;-79
2022/07/08 09:42:48;;;;;;;0.38;0.38;;;;;;;18.51;50.09;102545.72;5231192;28;20100;-79
2022/07/08 09:45:19;;;;;;;0.50;0.50;;;;;;;18.54;50.13;102537.66;5199492;28;20052;-79
2022/07/08 09:47:51;;;;;;;1.13;0.95;;;;;;;18.54;50.33;102540.31;5212312;28;20037;-80
2022/07/08 09:50:31;;;;;;;0.50;0.50;;;;;;;18.61;50.38;102535.66;5211544;28;20040;-79
2022/07/08 09:53:14;;;;;;;0.45;0.45;;;;;;;18.66;50.20;102546.13;5185171;28;20059;-79
2022/07/08 09:55:49;;;;;;;3.28;0.82;;;;;;;18.76;49.43;102539.63;5201944;28;20029;-79
2022/07/08 09:58:24;;;;;;;5.47;0.73;;;;;;;18.84;49.64;102536.72;5206149;28;20390;-78
2022/07/08 10:00:57;;;;;;;0.28;0.28;;;;;;;18.95;49.00;102536.38;5204881;28;20045;-79
2022/07/08 10:03:29;;;;;;;4.30;1.20;;;;;;;18.94;49.35;102531.97;5204328;28;20037;-79
2022/07/08 10:05:59;;;;;;;1.00;1.00;;;;;;;18.89;49.41;102534.75;5188818;28;20322;-79
2022/07/08 10:08:30;;;;;;;0.35;0.35;;;;;;;19.00;49.78;102526.44;5211856;28;20148;-79
2022/07/08 10:11:06;;;;;;;0.60;0.60;;;;;;;19.04;49.63;102528.09;5189215;28;20045;-79
2022/07/08 10:13:39;;;;;;;0.35;0.35;;;;;;;19.16;49.35;102532.97;5200346;28;20033;-79
2022/07/08 10:16:11;;;;;;;2.05;0.85;;;;;;;19.15;49.54;102533.91;5184298;28;20048;-80
2022/07/08 10:18:48;;;;;;;6.82;0.88;;;;;;;19.34;48.73;102527.94;5212473;28;20087;-79
2022/07/08 10:21:22;;;;;;;0.35;0.35;;;;;;;19.35;49.38;102524.34;5209715;28;20039;-80
2022/07/08 10:23:54;;;;;;;0.65;0.65;;;;;;;19.32;49.39;102528.00;5193468;28;20025;-80
2022/07/08 10:26:32;;;;;;;0.32;0.32;;;;;;;19.38;48.71;102531.38;5201982;28;20041;-80
2022/07/08 10:29:09;;;;;;;3.67;1.08;;;;;;;19.52;48.90;102522.88;5223927;28;20246;-80
2022/07/08 10:31:51;;;;;;;0.95;0.82;;;;;;;19.55;48.68;102528.97;5203410;28;20041;-79
2022/07/08 10:34:29;;;;;;;2.38;1.52;;;;;;;19.63;49.19;102523.34;5202560;28;20053;-80
2022/07/08 10:37:01;;;;;;;0.20;0.20;;;;;;;19.68;48.75;102529.38;5225659;28;20037;-80
2022/07/08 10:39:41;;;;;;;0.22;0.22;;;;;;;19.66;48.87;102521.47;5195617;28;20063;-80
2022/07/08 10:42:12;;;;;;;3.53;2.13;;;;;;;19.65;48.77;102518.84;5212551;28;20047;-80
2022/07/08 10:44:42;;;;;;;3.63;0.90;;;;;;;19.72;48.78;102525.66;5207428;28;20509;-80
2022/07/08 10:47:25;;;;;;;0.10;0.10;;;;;;;19.80;48.67;102515.59;5206481;28;20041;-80
2022/07/08 10:50:07;;;;;;;0.73;0.60;;;;;;;19.91;49.16;102515.25;5211990;28;20029;-79
2022/07/08 10:52:40;;;;;;;0.20;0.20;;;;;;;20.00;48.66;102514.00;5196768;28;20100;-80
2022/07/08 10:55:11;;;;;;;0.30;0.30;;;;;;;20.17;48.45;102516.00;5197119;28;20035;-80
2022/07/08 10:57:58;;;;;;;2.92;1.02;;;;;;;20.31;48.19;102515.47;5199116;28;20070;-81
2022/07/08 11:00:28;;;;;;;0.20;0.20;;;;;;;20.34;48.51;102518.03;5228600;28;20040;-80
2022/07/08 11:03:00;;;;;;;0.20;0.20;;;;;;;20.43;48.16;102512.31;5212582;28;20045;-80
2022/07/08 11:05:37;;;;;;;0.55;0.55;;;;;;;20.60;48.35;102519.63;5210598;28;20204;-80
2022/07/08 11:08:20;;;;;;;0.60;0.60;;;;;;;20.67;47.82;102514.91;5210372;28;20032;-80
2022/07/08 11:10:52;;;;;;;0.88;0.88;;;;;;;20.82;48.34;102512.56;5217517;28;20116;-80
2022/07/08 11:13:25;;;;;;;1.27;0.80;;;;;;;20.94;46.87;102520.06;5184708;28;20025;-80
2022/07/08 11:15:59;;;;;;;3.15;0.60;;;;;;;21.00;47.26;102511.78;5230019;28;20033;-80
2022/07/08 11:18:33;;;;;;;0.30;0.30;;;;;;;21.13;47.49;102511.25;5212255;28;20032;-80
2022/07/08 11:21:03;;;;;;;0.43;0.43;;;;;;;21.18;47.87;102509.25;5212143;28;20029;-80
2022/07/08 11:23:34;;;;;;;0.47;0.47;;;;;;;21.18;46.90;102510.13;5210390;28;20716;-80
2022/07/08 11:26:05;;;;;;;0.20;0.20;;;;;;;21.33;45.48;102513.94;5209728;28;20036;-80
2022/07/08 11:28:38;;;;;;;0.43;0.43;;;;;;;21.36;46.98;102512.91;5193169;28;20123;-80
2022/07/08 11:31:38;;;;;;;1.30;1.02;;;;;;;21.43;46.17;102516.19;5210495;28;20819;-80
2022/07/08 11:34:19;;;;;;;0.65;0.65;;;;;;;21.50;47.00;102512.31;5177767;28;20041;-78
2022/07/08 11:36:57;;;;;;;2.28;1.23;;;;;;;21.54;46.21;102511.22;5220390;28;20049;-80
2022/07/08 11:39:28;;;;;;;0.65;0.65;;;;;;;21.66;46.22;102521.38;5185874;28;20055;-79
2022/07/08 11:41:59;;;;;;;0.93;0.52;;;;;;;21.68;46.09;102505.28;5207943;28;20037;-79
2022/07/08 11:44:29;;;;;;;0.35;0.35;;;;;;;21.74;46.83;102501.47;5207091;28;20037;-79
2022/07/08 11:47:00;;;;;;;0.20;0.20;;;;;;;21.78;46.46;102501.25;5210616;28;20413;-80
2022/07/08 11:49:32;;;;;;;5.53;1.75;;;;;;;21.92;46.01;102505.97;5206746;28;20318;-79
2022/07/08 11:52:03;;;;;;;0.30;0.30;;;;;;;22.03;45.53;102508.13;5207781;28;20041;-80